Time;durP1;ratioP1;P1;durP2;ratioP2;P2;SDS_P1;SDS_P2;PMS_P1;PMS_P2;Temp;Humidity;BMP_temperature;BMP_pressure;BME280_temperature;BME280_humidity;BME280_pressure;Samples;Min_cycle;Max_cycle;Signal;HPM_P1;HPM_P2
2022/09/26 00:01:21;;;;;;;6.40;2.60;;;;;;;;;;5031071;28;20433;-76
2022/09/26 00:03:52;;;;;;;6.05;2.30;;;;;;;;;;5030691;28;20065;-76
2022/09/26 00:06:18;;;;;;;5.32;2.58;;;;;;;;;;5031127;28;20025;-76
2022/09/26 00:08:45;;;;;;;5.10;2.42;;;;;;;;;;5031234;28;20026;-76
2022/09/26 00:11:13;;;;;;;5.18;2.28;;;;;;;;;;5031436;28;20034;-78
2022/09/26 00:13:41;;;;;;;4.88;2.40;;;;;;;;;;5031141;28;20021;-80
2022/09/26 00:16:07;;;;;;;4.22;2.50;;;;;;;;;;5031061;28;20160;-78
2022/09/26 00:18:33;;;;;;;4.40;2.42;;;;;;;;;;5030628;28;20025;-77
2022/09/26 00:21:13;;;;;;;5.93;2.25;;;;;;;;;;5030901;28;20040;-78
2022/09/26 00:23:40;;;;;;;4.75;2.10;;;;;;;;;;5030952;28;20151;-77
2022/09/26 00:26:06;;;;;;;3.80;2.13;;;;;;;;;;5030742;28;20654;-77
2022/09/26 00:28:32;;;;;;;5.65;2.50;;;;;;;;;;5029347;28;20033;-77
2022/09/26 00:31:03;;;;;;;4.47;2.38;;;;;;;;;;5031071;28;20026;-78
2022/09/26 00:33:29;;;;;;;5.18;2.55;;;;;;;;;;5030476;28;20535;-77
2022/09/26 00:35:55;;;;;;;5.03;2.17;;;;;;;;;;5030627;28;20025;-79
2022/09/26 00:38:21;;;;;;;3.30;2.17;;;;;;;;;;5030663;28;20033;-78
2022/09/26 00:40:47;;;;;;;5.45;2.10;;;;;;;;;;5030821;28;20036;-77
2022/09/26 00:43:37;;;;;;;4.82;2.10;;;;;;;;;;5030926;28;20041;-78
2022/09/26 00:46:29;;;;;;;4.68;2.10;;;;;;;;;;5030864;28;20195;-81
2022/09/26 00:49:27;;;;;;;4.97;2.22;;;;;;;;;;5030587;28;20021;-79
2022/09/26 00:52:14;;;;;;;3.95;1.90;;;;;;;;;;5030415;28;20083;-82
2022/09/26 00:54:44;;;;;;;3.58;1.90;;;;;;;;;;5030249;28;20057;-82
2022/09/26 00:57:16;;;;;;;3.22;2.03;;;;;;;;;;5030355;28;20036;-80
2022/09/26 00:59:47;;;;;;;3.22;1.90;;;;;;;;;;5030285;28;20079;-79
2022/09/26 01:02:14;;;;;;;4.53;1.70;;;;;;;;;;5030466;28;20095;-80
2022/09/26 01:04:41;;;;;;;4.07;1.88;;;;;;;;;;5030221;28;20052;-78
2022/09/26 01:07:13;;;;;;;3.13;1.92;;;;;;;;;;5030160;28;20100;-80
2022/09/26 01:09:38;;;;;;;3.72;1.90;;;;;;;;;;5029974;28;20030;-78
2022/09/26 01:12:05;;;;;;;2.42;1.60;;;;;;;;;;5030123;28;20032;-80
2022/09/26 01:14:33;;;;;;;5.00;2.13;;;;;;;;;;5029530;28;20025;-77
2022/09/26 01:16:59;;;;;;;4.70;1.90;;;;;;;;;;5030037;28;20057;-78
2022/09/26 01:19:31;;;;;;;3.72;2.00;;;;;;;;;;5029956;28;20065;-80
2022/09/26 01:22:09;;;;;;;4.22;1.88;;;;;;;;;;5030146;28;20109;-79
2022/09/26 01:24:47;;;;;;;3.53;1.80;;;;;;;;;;5030093;28;20034;-81
2022/09/26 01:27:27;;;;;;;4.03;1.77;;;;;;;;;;5028404;28;20029;-81
2022/09/26 01:30:05;;;;;;;2.75;1.63;;;;;;;;;;5028561;28;20112;-81
2022/09/26 01:32:48;;;;;;;3.25;1.92;;;;;;;;;;5030025;28;20121;-81
2022/09/26 01:35:44;;;;;;;4.15;1.70;;;;;;;;;;5029879;28;20032;-80
2022/09/26 01:38:19;;;;;;;4.70;1.92;;;;;;;;;;5030373;28;20381;-80
2022/09/26 01:41:08;;;;;;;4.00;1.92;;;;;;;;;;5029606;28;20059;-80
2022/09/26 01:43:40;;;;;;;2.78;1.70;;;;;;;;;;5029727;28;20025;-79
2022/09/26 01:46:32;;;;;;;4.95;1.90;;;;;;;;;;5029633;28;20508;-80
2022/09/26 01:49:31;;;;;;;4.25;1.73;;;;;;;;;;5029831;28;20021;-79
2022/09/26 01:52:04;;;;;;;2.85;1.70;;;;;;;;;;5030096;28;20021;-80
2022/09/26 01:54:41;;;;;;;4.00;1.90;;;;;;;;;;5029921;28;20025;-81
2022/09/26 01:57:15;;;;;;;2.97;1.60;;;;;;;;;;5029640;28;20497;-80
2022/09/26 01:59:47;;;;;;;3.83;1.80;;;;;;;;;;5029484;28;20495;-81
2022/09/26 02:02:26;;;;;;;3.22;1.90;;;;;;;;;;5029542;28;20488;-81
2022/09/26 02:05:07;;;;;;;3.10;1.80;;;;;;;;;;5029559;28;20072;-82
2022/09/26 02:07:37;;;;;;;2.85;1.60;;;;;;;;;;5029646;28;20030;-82
2022/09/26 02:10:09;;;;;;;3.33;1.60;;;;;;;;;;5029656;28;20033;-81
2022/09/26 02:12:39;;;;;;;4.55;1.83;;;;;;;;;;5030010;28;20034;-82
2022/09/26 02:15:08;;;;;;;2.88;1.70;;;;;;;;;;5029902;28;20025;-81
2022/09/26 02:17:46;;;;;;;4.18;1.80;;;;;;;;;;5029405;28;20045;-82
2022/09/26 02:20:23;;;;;;;4.28;1.80;;;;;;;;;;5029079;28;20029;-81
2022/09/26 02:22:48;;;;;;;5.93;1.77;;;;;;;;;;5029632;28;20034;-79
2022/09/26 02:25:14;;;;;;;7.68;1.90;;;;;;;;;;5029834;28;20096;-81
2022/09/26 02:27:39;;;;;;;4.10;1.92;;;;;;;;;;5033133;28;20105;-80
2022/09/26 02:30:06;;;;;;;3.20;1.63;;;;;;;;;;5033279;28;20030;-79
2022/09/26 02:32:32;;;;;;;4.45;1.73;;;;;;;;;;5033106;28;20022;-80
2022/09/26 02:34:59;;;;;;;4.20;1.80;;;;;;;;;;5033168;28;20100;-81
2022/09/26 02:37:27;;;;;;;3.45;1.52;;;;;;;;;;5032852;28;20065;-79
2022/09/26 02:39:54;;;;;;;3.58;1.80;;;;;;;;;;5032683;28;20113;-76
2022/09/26 02:42:22;;;;;;;4.57;1.67;;;;;;;;;;5032867;28;20025;-76
2022/09/26 02:45:25;;;;;;;4.28;1.70;;;;;;;;;;5032989;28;20057;-76
2022/09/26 02:48:25;;;;;;;4.40;1.73;;;;;;;;;;5032497;28;20034;-76
2022/09/26 02:51:23;;;;;;;3.10;1.60;;;;;;;;;;5032407;28;20029;-76
2022/09/26 02:54:19;;;;;;;2.80;1.40;;;;;;;;;;5032797;28;20511;-76
2022/09/26 02:57:13;;;;;;;3.58;1.77;;;;;;;;;;5032395;28;20108;-77
2022/09/26 02:59:46;;;;;;;2.75;1.40;;;;;;;;;;5027734;28;20045;-76
2022/09/26 03:02:26;;;;;;;3.90;1.73;;;;;;;;;;5032734;28;20649;-80
2022/09/26 03:05:08;;;;;;;2.58;1.42;;;;;;;;;;5032397;28;20427;-79
2022/09/26 03:07:42;;;;;;;5.15;1.65;;;;;;;;;;5032438;28;20040;-80
2022/09/26 03:10:09;;;;;;;3.97;1.60;;;;;;;;;;5032231;28;20105;-81
2022/09/26 03:12:36;;;;;;;3.95;1.65;;;;;;;;;;5032316;28;20017;-81
2022/09/26 03:15:04;;;;;;;3.45;1.60;;;;;;;;;;5032083;28;20087;-80
2022/09/26 03:17:33;;;;;;;4.10;1.45;;;;;;;;;;5032000;28;20108;-80
2022/09/26 03:20:10;;;;;;;3.92;1.63;;;;;;;;;;5031952;28;20031;-80
2022/09/26 03:22:37;;;;;;;3.35;1.67;;;;;;;;;;5032106;28;20033;-80
2022/09/26 03:25:05;;;;;;;2.60;1.58;;;;;;;;;;5032306;28;20049;-79
2022/09/26 03:27:32;;;;;;;4.72;1.60;;;;;;;;;;5047076;28;20083;-80
2022/09/26 03:29:58;;;;;;;3.42;1.55;;;;;;;;;;5031860;28;20049;-80
2022/09/26 03:32:24;;;;;;;7.00;1.60;;;;;;;;;;5031780;28;20115;-77
2022/09/26 03:34:50;;;;;;;3.63;1.73;;;;;;;;;;5032085;28;20116;-80
2022/09/26 03:37:15;;;;;;;6.05;1.73;;;;;;;;;;5031511;28;20113;-80
2022/09/26 03:39:42;;;;;;;4.32;1.67;;;;;;;;;;5030726;28;20132;-77
2022/09/26 03:42:09;;;;;;;3.53;1.33;;;;;;;;;;5031718;28;20031;-77
2022/09/26 03:44:34;;;;;;;4.50;1.88;;;;;;;;;;5031665;28;20075;-79
2022/09/26 03:47:00;;;;;;;2.85;1.50;;;;;;;;;;5031080;28;20030;-77
2022/09/26 03:49:25;;;;;;;4.50;1.73;;;;;;;;;;5031700;28;20029;-76
2022/09/26 03:51:51;;;;;;;5.18;1.70;;;;;;;;;;5031656;28;20021;-76
2022/09/26 03:54:16;;;;;;;4.75;1.50;;;;;;;;;;5031795;28;20029;-78
2022/09/26 03:56:41;;;;;;;4.10;1.70;;;;;;;;;;5031404;28;20048;-77
2022/09/26 03:59:07;;;;;;;3.53;1.60;;;;;;;;;;5031751;28;20026;-78
2022/09/26 04:01:33;;;;;;;4.30;1.60;;;;;;;;;;5030932;28;20531;-79
2022/09/26 04:03:59;;;;;;;3.92;1.67;;;;;;;;;;5031240;28;20049;-81
2022/09/26 04:06:24;;;;;;;2.90;1.55;;;;;;;;;;5031669;28;20032;-79
2022/09/26 04:08:51;;;;;;;4.70;1.65;;;;;;;;;;5031458;28;20701;-79
2022/09/26 04:11:20;;;;;;;6.15;1.88;;;;;;;;;;5031247;28;20542;-81
2022/09/26 04:13:46;;;;;;;3.92;1.55;;;;;;;;;;5030071;28;20534;-82
2022/09/26 04:16:12;;;;;;;3.92;1.92;;;;;;;;;;5031303;28;20034;-82
2022/09/26 04:18:37;;;;;;;5.05;1.50;;;;;;;;;;5031493;28;20109;-80
2022/09/26 04:21:14;;;;;;;2.63;1.45;;;;;;;;;;5031147;28;20421;-81
2022/09/26 04:23:41;;;;;;;4.25;1.67;;;;;;;;;;5046544;28;20029;-81
2022/09/26 04:26:11;;;;;;;2.78;1.60;;;;;;;;;;5031241;28;20496;-81
2022/09/26 04:28:37;;;;;;;3.25;1.70;;;;;;;;;;5030885;28;20405;-81
2022/09/26 04:31:05;;;;;;;3.00;1.58;;;;;;;;;;5030739;28;20036;-81
2022/09/26 04:33:32;;;;;;;5.00;1.67;;;;;;;;;;5030806;28;20021;-79
2022/09/26 04:36:03;;;;;;;3.90;1.55;;;;;;;;;;5030630;28;20030;-80
2022/09/26 04:38:31;;;;;;;;;;;;;;;;;;5031078;28;20033;-80
2022/09/26 04:41:02;;;;;;;5.05;1.60;;;;;;;;;;5030315;28;20411;-79
2022/09/26 04:43:27;;;;;;;;;;;;;;;;;;5030142;28;20018;-81
2022/09/26 04:45:52;;;;;;;4.03;1.50;;;;;;;;;;5030996;28;19932;-81
2022/09/26 04:48:18;;;;;;;3.90;1.80;;;;;;;;;;5030394;28;20018;-81
2022/09/26 04:50:43;;;;;;;4.32;1.75;;;;;;;;;;5045411;28;20517;-82
2022/09/26 04:53:08;;;;;;;4.70;1.67;;;;;;;;;;5030650;28;20038;-82
2022/09/26 04:55:34;;;;;;;4.22;1.70;;;;;;;;;;5030448;28;20033;-82
2022/09/26 04:58:01;;;;;;;5.25;1.70;;;;;;;;;;5030246;28;20045;-82
2022/09/26 05:00:26;;;;;;;3.05;1.70;;;;;;;;;;5030221;28;20028;-82
2022/09/26 05:02:52;;;;;;;4.05;1.70;;;;;;;;;;5029991;28;20030;-81
2022/09/26 05:05:18;;;;;;;6.13;1.60;;;;;;;;;;5030513;28;20053;-82
2022/09/26 05:07:43;;;;;;;5.05;1.80;;;;;;;;;;5030019;28;20034;-81
2022/09/26 05:10:09;;;;;;;4.72;1.70;;;;;;;;;;5030254;28;20083;-81
2022/09/26 05:12:38;;;;;;;6.53;1.90;;;;;;;;;;5029849;28;20026;-82
2022/09/26 05:15:08;;;;;;;4.03;1.80;;;;;;;;;;5030020;28;20030;-80
2022/09/26 05:17:37;;;;;;;7.33;1.70;;;;;;;;;;5030003;28;20497;-80
2022/09/26 05:20:07;;;;;;;3.97;1.70;;;;;;;;;;5030140;28;20057;-80
2022/09/26 05:22:33;;;;;;;3.40;1.42;;;;;;;;;;5029873;28;20036;-81
2022/09/26 05:27:44;;;;;;;2.97;1.60;;;;;;;;;;5029775;28;20032;-80
2022/09/26 05:30:11;;;;;;;5.15;1.70;;;;;;;;;;5029845;28;20394;-80
2022/09/26 05:32:38;;;;;;;4.13;1.40;;;;;;;;;;5029605;28;20105;-81
2022/09/26 05:35:04;;;;;;;5.68;1.90;;;;;;;;;;5030101;28;20071;-77
2022/09/26 05:37:30;;;;;;;2.70;1.65;;;;;;;;;;5029434;28;20084;-77
2022/09/26 05:42:39;;;;;;;6.55;1.80;;;;;;;;;;5029792;28;20091;-76
2022/09/26 05:45:05;;;;;;;5.50;1.77;;;;;;;;;;5029768;28;20033;-76
2022/09/26 05:47:35;;;;;;;3.90;1.60;;;;;;;;;;5029129;28;20080;-76
2022/09/26 05:50:08;;;;;;;7.55;1.60;;;;;;;;;;5029508;28;20079;-77
2022/09/26 05:52:35;;;;;;;6.18;1.80;;;;;;;;;;5044968;28;20025;-77
2022/09/26 05:55:00;;;;;;;3.00;1.63;;;;;;;;;;5029974;28;20530;-77
2022/09/26 05:57:26;;;;;;;4.47;1.90;;;;;;;;;;5029530;28;20057;-77
2022/09/26 05:59:51;;;;;;;2.92;1.63;;;;;;;;;;5029699;28;20057;-79
2022/09/26 06:02:16;;;;;;;5.30;1.75;;;;;;;;;;5032906;28;20029;-77
2022/09/26 06:04:42;;;;;;;3.20;1.50;;;;;;;;;;5033548;28;20033;-78
2022/09/26 06:07:07;;;;;;;8.15;1.80;;;;;;;;;;5033449;28;20477;-76
2022/09/26 06:09:32;;;;;;;4.03;1.50;;;;;;;;;;5032044;28;20025;-75
2022/09/26 06:11:58;;;;;;;3.92;1.67;;;;;;;;;;5033251;28;20037;-77
2022/09/26 06:14:25;;;;;;;5.22;1.73;;;;;;;;;;5033587;28;20029;-78
2022/09/26 06:16:50;;;;;;;5.47;1.65;;;;;;;;;;5048670;28;20021;-75
2022/09/26 06:19:15;;;;;;;5.85;1.77;;;;;;;;;;5033318;28;20094;-77
2022/09/26 06:21:42;;;;;;;4.82;1.90;;;;;;;;;;5033085;28;20045;-76
2022/09/26 06:24:09;;;;;;;4.95;1.70;;;;;;;;;;5033108;28;20059;-76
2022/09/26 06:26:34;;;;;;;5.80;1.65;;;;;;;;;;5033250;28;20513;-77
2022/09/26 06:29:01;;;;;;;4.13;1.80;;;;;;;;;;5032939;28;20029;-78
2022/09/26 06:31:27;;;;;;;7.30;2.30;;;;;;;;;;5032808;28;20028;-78
2022/09/26 06:33:54;;;;;;;8.93;1.83;;;;;;;;;;5033149;28;20014;-78
2022/09/26 06:36:20;;;;;;;4.55;1.90;;;;;;;;;;5033155;28;20022;-80
2022/09/26 06:38:46;;;;;;;8.90;1.92;;;;;;;;;;5032576;28;20025;-77
2022/09/26 06:41:13;;;;;;;5.50;1.80;;;;;;;;;;5032730;28;20032;-77
2022/09/26 06:43:39;;;;;;;7.70;2.00;;;;;;;;;;5032645;28;20025;-77
2022/09/26 06:46:08;;;;;;;4.97;2.00;;;;;;;;;;5032667;28;20026;-77
2022/09/26 06:48:34;;;;;;;4.93;1.75;;;;;;;;;;5032510;28;20024;-77
2022/09/26 06:50:59;;;;;;;6.32;1.90;;;;;;;;;;5032953;28;20025;-78
2022/09/26 06:53:26;;;;;;;5.28;1.90;;;;;;;;;;5032700;28;20042;-77
2022/09/26 06:55:51;;;;;;;6.75;2.08;;;;;;;;;;5032653;28;20021;-77
2022/09/26 06:58:17;;;;;;;7.20;2.10;;;;;;;;;;5032096;28;20036;-78
2022/09/26 07:00:42;;;;;;;5.75;1.70;;;;;;;;;;5033070;28;20056;-80
2022/09/26 07:03:08;;;;;;;5.63;1.80;;;;;;;;;;5032241;28;20039;-79
2022/09/26 07:05:34;;;;;;;4.40;1.90;;;;;;;;;;5032844;28;20034;-78
2022/09/26 07:08:01;;;;;;;5.47;1.90;;;;;;;;;;5032791;28;20103;-79
2022/09/26 07:10:29;;;;;;;7.07;2.00;;;;;;;;;;5032330;28;20025;-80
2022/09/26 07:13:01;;;;;;;6.43;2.00;;;;;;;;;;5031122;28;20509;-78
2022/09/26 07:15:29;;;;;;;9.02;1.90;;;;;;;;;;5032370;28;20028;-79
2022/09/26 07:17:56;;;;;;;4.97;1.92;;;;;;;;;;5031877;28;20068;-82
2022/09/26 07:20:22;;;;;;;9.63;2.30;;;;;;;;;;5032292;28;20030;-80
2022/09/26 07:22:47;;;;;;;6.93;1.92;;;;;;;;;;5032325;28;20075;-81
2022/09/26 07:25:14;;;;;;;5.75;1.90;;;;;;;;;;5032266;28;20026;-81
2022/09/26 07:27:40;;;;;;;5.65;1.80;;;;;;;;;;5031943;28;20397;-81
2022/09/26 07:30:07;;;;;;;6.28;1.80;;;;;;;;;;5032310;28;20481;-81
2022/09/26 07:32:33;;;;;;;5.45;1.80;;;;;;;;;;5031815;28;20074;-81
2022/09/26 07:35:02;;;;;;;5.30;2.00;;;;;;;;;;5032450;28;20033;-84
2022/09/26 07:37:28;;;;;;;5.05;1.70;;;;;;;;;;5032414;28;20021;-82
2022/09/26 07:39:53;;;;;;;5.63;1.90;;;;;;;;;;5031940;28;20045;-81
2022/09/26 07:42:20;;;;;;;5.82;1.88;;;;;;;;;;5031799;28;20068;-81
2022/09/26 07:44:46;;;;;;;4.90;1.80;;;;;;;;;;5032072;28;20087;-80
2022/09/26 07:50:11;;;;;;;2.78;1.60;;;;;;;;;;5031876;28;20044;-80
2022/09/26 07:52:38;;;;;;;3.85;1.48;;;;;;;;;;5031642;28;20025;-79
2022/09/26 07:55:04;;;;;;;7.00;2.00;;;;;;;;;;5031582;28;20029;-80
2022/09/26 07:57:34;;;;;;;6.90;1.70;;;;;;;;;;5031802;28;20702;-80
2022/09/26 08:00:03;;;;;;;5.65;1.52;;;;;;;;;;5032186;28;20412;-79
2022/09/26 08:02:33;;;;;;;7.97;2.03;;;;;;;;;;5031463;28;20470;-79
2022/09/26 08:04:59;;;;;;;3.75;1.48;;;;;;;;;;5031217;28;20045;-81
2022/09/26 08:07:24;;;;;;;4.32;1.23;;;;;;;;;;5031312;28;20094;-80
2022/09/26 08:09:53;;;;;;;4.88;1.20;;;;;;;;;;5031102;28;20450;-81
2022/09/26 08:12:18;;;;;;;7.38;1.45;;;;;;;;;;5031589;28;20029;-81
2022/09/26 08:14:51;;;;;;;5.22;1.58;;;;;;;;;;5031068;28;20480;-78
2022/09/26 08:17:18;;;;;;;7.93;1.52;;;;;;;;;;5030984;28;20068;-81
2022/09/26 08:19:43;;;;;;;4.88;1.50;;;;;;;;;;5031145;28;20048;-79
2022/09/26 08:22:10;;;;;;;4.68;1.83;;;;;;;;;;5031388;28;20113;-79
2022/09/26 08:24:35;;;;;;;2.75;1.35;;;;;;;;;;5030454;28;20032;-79
2022/09/26 08:27:00;;;;;;;5.35;1.52;;;;;;;;;;5046325;28;20025;-77
2022/09/26 08:29:26;;;;;;;4.38;1.50;;;;;;;;;;5030591;28;20377;-75
2022/09/26 08:31:52;;;;;;;3.00;1.30;;;;;;;;;;5030842;28;20108;-75
2022/09/26 08:34:19;;;;;;;3.53;1.48;;;;;;;;;;5030662;28;20021;-77
2022/09/26 08:36:53;;;;;;;3.85;1.55;;;;;;;;;;5031046;28;20029;-75
2022/09/26 08:39:22;;;;;;;3.05;1.50;;;;;;;;;;5030442;28;20033;-75
2022/09/26 08:42:16;;;;;;;3.47;1.40;;;;;;;;;;5030651;28;20037;-75
2022/09/26 08:48:25;;;;;;;5.22;1.80;;;;;;;;;;5030677;28;20114;-78
2022/09/26 08:51:03;;;;;;;6.35;1.20;;;;;;;;;;5030525;28;20053;-80
2022/09/26 08:53:39;;;;;;;3.47;1.30;;;;;;;;;;5045990;28;20124;-76
2022/09/26 08:56:15;;;;;;;5.20;1.23;;;;;;;;;;5030641;28;20039;-79
2022/09/26 08:58:44;;;;;;;4.15;1.33;;;;;;;;;;5030151;28;20035;-80
2022/09/26 09:01:22;;;;;;;5.05;1.20;;;;;;;;;;5030268;28;20509;-80
2022/09/26 09:03:53;;;;;;;2.75;1.35;;;;;;;;;;5029871;28;20057;-78
2022/09/26 09:06:18;;;;;;;3.15;1.30;;;;;;;;;;5030368;28;20030;-78
2022/09/26 09:08:51;;;;;;;3.22;1.20;;;;;;;;;;5029983;28;20036;-76
2022/09/26 09:11:54;;;;;;;4.90;1.25;;;;;;;;;;5030329;28;20043;-78
2022/09/26 09:14:38;;;;;;;6.53;1.60;;;;;;;;;;5030165;28;20031;-78
2022/09/26 09:17:24;;;;;;;5.65;1.67;;;;;;;;;;5030057;28;20033;-76
2022/09/26 09:20:09;;;;;;;3.15;1.10;;;;;;;;;;5029524;28;20025;-81
2022/09/26 09:23:00;;;;;;;3.78;1.20;;;;;;;;;;5030168;28;20641;-76
2022/09/26 09:25:43;;;;;;;2.47;1.30;;;;;;;;;;5029850;28;20064;-76
2022/09/26 09:28:44;;;;;;;2.67;1.27;;;;;;;;;;5030064;28;20113;-80
2022/09/26 09:31:14;;;;;;;3.83;1.20;;;;;;;;;;4987521;28;20561;-78
2022/09/26 09:33:54;;;;;;;3.77;1.10;;;;;;;;;;5021064;28;20402;-77
2022/09/26 09:36:24;;;;;;;3.15;1.05;;;;;;;;;;5044514;28;20025;-78
2022/09/26 09:38:52;;;;;;;4.75;1.50;;;;;;;;;;5029806;28;20108;-78
2022/09/26 09:41:23;;;;;;;4.65;1.40;;;;;;;;;;5029676;28;20572;-77
2022/09/26 09:44:02;;;;;;;1.70;1.10;;;;;;;;;;5030007;28;20021;-79
2022/09/26 09:46:34;;;;;;;4.07;1.38;;;;;;;;;;5029831;28;20049;-77
2022/09/26 09:49:09;;;;;;;3.50;1.20;;;;;;;;;;5029777;28;20032;-80
2022/09/26 09:52:01;;;;;;;2.80;1.00;;;;;;;;;;5028350;28;20026;-80
2022/09/26 09:54:56;;;;;;;2.63;1.20;;;;;;;;;;5028435;28;20051;-81
2022/09/26 09:57:49;;;;;;;2.78;1.30;;;;;;;;;;5028812;28;20033;-80
2022/09/26 10:00:21;;;;;;;2.92;1.10;;;;;;;;;;5028292;28;20045;-81
2022/09/26 10:02:59;;;;;;;2.35;1.15;;;;;;;;;;5030188;28;20112;-79
2022/09/26 10:05:42;;;;;;;2.88;1.30;;;;;;;;;;5029644;28;20053;-82
2022/09/26 10:08:18;;;;;;;4.05;1.45;;;;;;;;;;5030163;28;20512;-80
2022/09/26 10:11:11;;;;;;;3.55;1.30;;;;;;;;;;5030012;28;20116;-79
2022/09/26 10:13:41;;;;;;;1.85;1.00;;;;;;;;;;5029687;28;20069;-79
2022/09/26 10:16:13;;;;;;;2.72;1.40;;;;;;;;;;5027989;28;20477;-80
2022/09/26 10:19:05;;;;;;;3.15;1.30;;;;;;;;;;5029427;28;20516;-81
2022/09/26 10:21:39;;;;;;;2.85;1.10;;;;;;;;;;5029293;28;20477;-80
2022/09/26 10:24:20;;;;;;;3.20;1.42;;;;;;;;;;5030068;28;20044;-82
2022/09/26 10:26:48;;;;;;;2.53;1.20;;;;;;;;;;5029389;28;20033;-81
2022/09/26 10:29:35;;;;;;;2.60;1.30;;;;;;;;;;5029218;28;20026;-80
2022/09/26 10:32:02;;;;;;;3.25;1.30;;;;;;;;;;5029167;28;20030;-79
2022/09/26 10:34:37;;;;;;;3.30;1.40;;;;;;;;;;5029425;28;20038;-81
2022/09/26 10:37:23;;;;;;;1.80;1.20;;;;;;;;;;5029509;28;20026;-81
2022/09/26 10:42:42;;;;;;;4.15;1.30;;;;;;;;;;5029428;28;20052;-76
2022/09/26 10:45:20;;;;;;;4.80;1.30;;;;;;;;;;5029326;28;20034;-80
2022/09/26 10:47:50;;;;;;;2.78;1.30;;;;;;;;;;5029963;28;20053;-79
2022/09/26 10:50:26;;;;;;;3.83;1.40;;;;;;;;;;5032752;28;20029;-81
2022/09/26 10:53:14;;;;;;;3.00;1.38;;;;;;;;;;5032691;28;20053;-77
2022/09/26 10:55:44;;;;;;;3.92;1.38;;;;;;;;;;5032924;28;20101;-76
2022/09/26 10:58:18;;;;;;;2.55;1.40;;;;;;;;;;5031740;28;20481;-76
2022/09/26 11:00:49;;;;;;;3.05;1.35;;;;;;;;;;5032386;28;20125;-76
2022/09/26 11:03:31;;;;;;;3.33;1.10;;;;;;;;;;5032288;28;20092;-76
2022/09/26 11:05:57;;;;;;;2.60;1.20;;;;;;;;;;5032595;28;20053;-76
2022/09/26 11:08:33;;;;;;;4.35;1.40;;;;;;;;;;5032618;28;20426;-76
2022/09/26 11:11:01;;;;;;;2.40;1.10;;;;;;;;;;5047242;28;20045;-76
2022/09/26 11:13:31;;;;;;;2.80;1.20;;;;;;;;;;5032434;28;20034;-75
2022/09/26 11:16:10;;;;;;;3.95;1.40;;;;;;;;;;5032431;28;20025;-77
2022/09/26 11:18:44;;;;;;;2.22;1.27;;;;;;;;;;5032056;28;20131;-81
2022/09/26 11:21:51;;;;;;;2.97;1.25;;;;;;;;;;5031548;28;20037;-76
2022/09/26 11:24:41;;;;;;;1.73;0.85;;;;;;;;;;5047211;28;20386;-75
2022/09/26 11:27:22;;;;;;;3.75;1.10;;;;;;;;;;5032113;28;20048;-75
2022/09/26 11:30:06;;;;;;;2.17;1.13;;;;;;;;;;5032001;28;20049;-77
2022/09/26 11:32:39;;;;;;;2.05;1.00;;;;;;;;;;5032002;28;20033;-79
2022/09/26 11:35:16;;;;;;;3.63;1.10;;;;;;;;;;5031937;28;20489;-77
2022/09/26 11:38:10;;;;;;;5.18;1.20;;;;;;;;;;5031842;28;20040;-78
2022/09/26 11:41:02;;;;;;;2.15;1.15;;;;;;;;;;5031430;28;20029;-78
2022/09/26 11:43:59;;;;;;;2.10;1.08;;;;;;;;;;5032129;28;20639;-78
2022/09/26 11:46:46;;;;;;;2.67;1.10;;;;;;;;;;5031533;28;20036;-78
2022/09/26 11:49:23;;;;;;;2.88;1.10;;;;;;;;;;5031841;28;20385;-78
2022/09/26 11:52:45;;;;;;;4.13;1.02;;;;;;;;;;5031427;28;20676;-76
2022/09/26 11:55:37;;;;;;;3.15;1.20;;;;;;;;;;4989341;28;20089;-77
2022/09/26 11:58:14;;;;;;;1.73;0.82;;;;;;;;;;4988961;28;20042;-76
2022/09/26 12:00:48;;;;;;;2.33;1.10;;;;;;;;;;5018383;28;20045;-76
2022/09/26 12:03:35;;;;;;;4.22;1.50;;;;;;;;;;5031168;28;20049;-76
2022/09/26 12:06:21;;;;;;;3.72;1.20;;;;;;;;;;5029991;28;20090;-77
2022/09/26 12:09:00;;;;;;;2.95;1.10;;;;;;;;;;5023918;28;20515;-77
2022/09/26 12:11:36;;;;;;;6.05;1.20;;;;;;;;;;5030514;28;20013;-78
2022/09/26 12:14:13;;;;;;;4.35;1.15;;;;;;;;;;5031255;28;20027;-80
2022/09/26 12:16:45;;;;;;;2.38;1.02;;;;;;;;;;5030949;28;20026;-77
2022/09/26 12:19:16;;;;;;;3.85;1.00;;;;;;;;;;5031421;28;20028;-79
2022/09/26 12:22:27;;;;;;;2.42;1.23;;;;;;;;;;5030809;28;20094;-77
2022/09/26 12:24:59;;;;;;;4.07;1.23;;;;;;;;;;5030757;28;20036;-80
2022/09/26 12:27:42;;;;;;;5.13;1.30;;;;;;;;;;5030908;28;20026;-78
2022/09/26 12:30:14;;;;;;;2.70;1.15;;;;;;;;;;5030881;28;20025;-78
2022/09/26 12:32:49;;;;;;;3.63;1.30;;;;;;;;;;5030597;28;20480;-77
2022/09/26 12:35:30;;;;;;;3.20;1.27;;;;;;;;;;5030843;28;20028;-78
2022/09/26 12:38:04;;;;;;;3.25;1.20;;;;;;;;;;5029661;28;20036;-79
2022/09/26 12:41:03;;;;;;;3.70;1.30;;;;;;;;;;5030632;28;20032;-76
2022/09/26 12:43:40;;;;;;;2.47;1.15;;;;;;;;;;5030610;28;20064;-81
2022/09/26 12:46:39;;;;;;;4.88;1.17;;;;;;;;;;5030598;28;20025;-81
2022/09/26 12:49:19;;;;;;;2.63;1.00;;;;;;;;;;5030421;28;20472;-81
2022/09/26 12:51:48;;;;;;;2.20;1.27;;;;;;;;;;5030360;28;20049;-81
2022/09/26 12:54:19;;;;;;;4.68;1.17;;;;;;;;;;5030653;28;20037;-81
2022/09/26 12:57:05;;;;;;;4.72;1.20;;;;;;;;;;5031126;28;20035;-79
2022/09/26 13:00:11;;;;;;;3.42;1.13;;;;;;;;;;5030490;28;20033;-80
2022/09/26 13:02:59;;;;;;;4.43;1.00;;;;;;;;;;5029756;28;20029;-77
2022/09/26 13:05:49;;;;;;;2.88;1.05;;;;;;;;;;5030290;28;20121;-80
2022/09/26 13:08:20;;;;;;;3.60;1.00;;;;;;;;;;5030752;28;20029;-79
2022/09/26 13:11:04;;;;;;;3.28;0.93;;;;;;;;;;5029583;28;20030;-80
2022/09/26 13:13:47;;;;;;;4.40;1.00;;;;;;;;;;5028850;28;20030;-76
2022/09/26 13:16:24;;;;;;;3.33;0.90;;;;;;;;;;5030072;28;20036;-80
2022/09/26 13:19:08;;;;;;;3.00;0.90;;;;;;;;;;5030111;28;20068;-76
2022/09/26 13:21:46;;;;;;;3.80;0.90;;;;;;;;;;5029276;28;20040;-79
2022/09/26 13:24:23;;;;;;;3.33;1.00;;;;;;;;;;5030305;28;20036;-76
2022/09/26 13:27:11;;;;;;;2.30;0.90;;;;;;;;;;5029879;28;20432;-80
2022/09/26 13:29:38;;;;;;;2.45;1.00;;;;;;;;;;5030294;28;20029;-80
2022/09/26 13:32:25;;;;;;;2.08;0.80;;;;;;;;;;5029584;28;20221;-78
2022/09/26 13:35:01;;;;;;;1.63;0.82;;;;;;;;;;5030138;28;20138;-76
2022/09/26 13:38:06;;;;;;;2.35;1.05;;;;;;;;;;5029691;28;20509;-80
2022/09/26 13:40:55;;;;;;;1.80;0.75;;;;;;;;;;5029464;28;20428;-79
2022/09/26 13:43:42;;;;;;;3.88;0.82;;;;;;;;;;5009849;28;20069;-78
2022/09/26 13:46:19;;;;;;;2.50;0.70;;;;;;;;;;5029903;28;20037;-79
2022/09/26 13:48:50;;;;;;;0.98;0.60;;;;;;;;;;5030006;28;20036;-79
2022/09/26 13:51:24;;;;;;;3.33;0.80;;;;;;;;;;5030332;28;20022;-78
2022/09/26 13:54:18;;;;;;;4.85;0.80;;;;;;;;;;5029978;28;20108;-81
2022/09/26 13:56:48;;;;;;;1.95;0.60;;;;;;;;;;5029787;28;20037;-79
2022/09/26 13:59:14;;;;;;;1.70;0.60;;;;;;;;;;5028728;28;20469;-80
2022/09/26 14:02:14;;;;;;;1.73;0.73;;;;;;;;;;5029653;28;20041;-79
2022/09/26 14:04:40;;;;;;;3.58;0.70;;;;;;;;;;5030259;28;20059;-81
2022/09/26 14:10:35;;;;;;;1.48;0.50;;;;;;;;;;5029488;28;20114;-81
2022/09/26 14:13:16;;;;;;;3.13;1.58;;;;;;;;;;5029051;28;20029;-76
2022/09/26 14:15:48;;;;;;;3.65;0.68;;;;;;;;;;5029483;28;20029;-76
2022/09/26 14:18:41;;;;;;;2.13;0.50;;;;;;;;;;5029182;28;20030;-75
2022/09/26 14:21:22;;;;;;;2.80;0.60;;;;;;;;;;5029364;28;20029;-77
2022/09/26 14:23:49;;;;;;;8.05;0.50;;;;;;;;;;5032021;28;20112;-77
2022/09/26 14:26:40;;;;;;;4.03;0.63;;;;;;;;;;5033366;28;20028;-77
2022/09/26 14:29:28;;;;;;;1.55;0.63;;;;;;;;;;5033254;28;20124;-77
2022/09/26 14:32:14;;;;;;;2.10;0.60;;;;;;;;;;5032776;28;20073;-76
2022/09/26 14:34:59;;;;;;;1.92;0.60;;;;;;;;;;5033235;28;20029;-78
2022/09/26 14:37:40;;;;;;;1.33;0.60;;;;;;;;;;5032959;28;20028;-77
2022/09/26 14:40:06;;;;;;;2.13;0.60;;;;;;;;;;5033142;28;20032;-76
2022/09/26 14:42:35;;;;;;;1.70;0.77;;;;;;;;;;5032611;28;20029;-76
2022/09/26 14:45:05;;;;;;;1.10;0.60;;;;;;;;;;5033159;28;20026;-77
2022/09/26 14:48:00;;;;;;;4.05;0.70;;;;;;;;;;5031302;28;20199;-76
2022/09/26 14:50:34;;;;;;;2.20;0.75;;;;;;;;;;5014037;28;20396;-75
2022/09/26 14:53:25;;;;;;;1.23;0.60;;;;;;;;;;5032464;28;20025;-76
2022/09/26 14:56:31;;;;;;;1.20;0.50;;;;;;;;;;5013170;28;20034;-75
2022/09/26 14:59:15;;;;;;;2.10;0.50;;;;;;;;;;5025924;28;20038;-80
2022/09/26 15:01:45;;;;;;;1.25;0.47;;;;;;;;;;5032273;28;20025;-75
2022/09/26 15:04:24;;;;;;;3.70;0.70;;;;;;;;;;5032453;28;20045;-75
2022/09/26 15:07:19;;;;;;;1.23;0.70;;;;;;;;;;5032572;28;20473;-75
2022/09/26 15:09:55;;;;;;;1.17;0.55;;;;;;;;;;5031408;28;20037;-77
2022/09/26 15:12:39;;;;;;;2.05;0.60;;;;;;;;;;5032448;28;20035;-76
2022/09/26 15:15:17;;;;;;;1.83;0.63;;;;;;;;;;5032499;28;20036;-76
2022/09/26 15:17:48;;;;;;;0.85;0.57;;;;;;;;;;5030750;28;20077;-77
2022/09/26 15:20:17;;;;;;;1.52;0.43;;;;;;;;;;5032281;28;20153;-78
2022/09/26 15:22:43;;;;;;;1.70;0.50;;;;;;;;;;5031866;28;20036;-77
2022/09/26 15:25:21;;;;;;;1.25;0.73;;;;;;;;;;5032103;28;20025;-78
2022/09/26 15:27:52;;;;;;;2.88;0.68;;;;;;;;;;5030668;28;20021;-81
2022/09/26 15:30:23;;;;;;;3.38;1.00;;;;;;;;;;5032177;28;20104;-78
2022/09/26 15:33:03;;;;;;;1.13;0.57;;;;;;;;;;5031427;28;20517;-80
2022/09/26 15:35:29;;;;;;;2.75;0.68;;;;;;;;;;5032016;28;20503;-79
2022/09/26 15:38:00;;;;;;;2.53;0.60;;;;;;;;;;5031818;28;20025;-80
2022/09/26 15:40:27;;;;;;;3.40;0.68;;;;;;;;;;5031839;28;20485;-79
2022/09/26 15:43:08;;;;;;;2.72;0.65;;;;;;;;;;5029912;28;20504;-79